| 02 May 2026 | La Traversée de la Baie Saint-Brieuc (22) 15KM - Nature ARCHIVES DE CETTE COURSE Tps moyen : 01:32:02 publiée avec accord |
![]() 928 |
![]() 483 |
CAM 11 JUM 41 ESM 14 SEM 101 |
M0M 54 M1M 52 M2M 49 M3M 66 M4M 41 |
M5M 32 M6M 13 M7M 6 M8M 2 M9M 1 |
CAF 3 JUF 22 ESF 10 SEF 100 |
M0F 62 M1F 66 M2F 50 M3F 72 M4F 30 |
M5F 18 M6F 8 M7F 3 | ![]() 445 |
← 1... 5 6 7 8 9 10 11... 19 →
| Classement |
Nom et Prénom |
Perf |
Allure moyenne |
Cl. Cat. |
| 350/928 | HENRY Daniel | 01:27:17 RP | 5:49 | 15/M5M |
| 351/928 | EVANNO Matthieu | 01:27:17 RP | 5:49 | 70/SEM |
| 352/928 | LEGER Antoine | 01:27:17 RP | 5:49 | 33/M0M |
| 353/928 | GRONDEIN Fabrice | 01:27:24 | 5:50 | 19/M4M |
| 354/928 | CHARRIER Hugo | 01:27:24 RP | 5:50 | 71/SEM |
| 355/928 | LETACONNOUX Sylvain (18199) | 01:27:43 | 5:51 | 27/M3M |
| 356/928 | HELLIO David | 01:27:44 | 5:51 | 31/M2M |
| 357/928 | LE NAY Kevin (17328) | 01:27:45 | 5:51 | 29/M1M |
| 358/928 | GOUEDARD Eva | 01:27:46 RP | 5:51 | 31/SEF |
| 359/928 | DEPAGNE Gwendal | 01:27:47 RP | 5:51 | 72/SEM |
| 360/928 | MISCHLER Clara | 01:27:49 | 5:51 | 32/SEF |
| 361/928 | MALEGEANT Guenaelle (1596) | 01:27:49 | 5:51 | 17/M3F |
| 362/928 | EMERY Soizic | 01:27:55 | 5:52 | 18/M3F |
| 363/928 | TEMPLIER Francoise | 01:27:56 | 5:52 | 19/M3F |
| 364/928 | TEMPLIER Isabelle | 01:27:57 RP | 5:52 | 4/M4F |
| 365/928 | VIVIER Pascale | 01:27:57 RP | 5:52 | 20/M3F |
| 366/928 | BLIVET Stephane | 01:27:58 RP | 5:52 | 28/M3M |
| 367/928 | LE GALLOU Thomas | 01:27:59 RP | 5:52 | 34/M0M |
| 368/928 | LE MAOUT Elise | 01:28:00 RP | 5:52 | 9/M2F |
| 369/928 | FONTAN Christelle | 01:28:02 RP | 5:52 | 21/M3F |
| 370/928 | LEBRUMENT Francois | 01:28:06 RP | 5:52 | 73/SEM |
| 371/928 | BLANCHARD Alexandre | 01:28:09 | 5:53 | 35/M0M |
| 372/928 | PIAUT Sylvain | 01:28:10 RP | 5:53 | 36/M0M |
| 373/928 | DONVAL Victor | 01:28:12 RP | 5:53 | 11/ESM |
| 374/928 | MARTIN Alistair | 01:28:13 RP | 5:53 | 19/JUM |
| 375/928 | NOLIER Herve | 01:28:19 RP | 5:53 | 20/M4M |
| 376/928 | BONICEL Philippe | 01:28:21 RP | 5:53 | 16/M5M |
| 377/928 | LE FORESTIER Stephane | 01:28:22 RP | 5:53 | 21/M4M |
| 378/928 | BURLOT Gilles | 01:28:27 RP | 5:54 | 32/M2M |
| 379/928 | CHEVROLLIER Aimeric | 01:28:31 RP | 5:54 | 37/M0M |
| 380/928 | BARRAIS Clement | 01:28:43 RP | 5:55 | 74/SEM |
| 381/928 | JOUAULT Mylene | 01:28:43 RP | 5:55 | 33/SEF |
| 382/928 | DINCAU Laurent | 01:28:44 RP | 5:55 | 22/M4M |
| 383/928 | LECOUEY Frederique | 01:28:47 RP | 5:55 | 22/M3F |
| 384/928 | BONNEAU Nikita | 01:28:47 RP | 5:55 | 23/M3F |
| 385/928 | JORET Patricia | 01:28:47 RP | 5:55 | 5/M4F |
| 386/928 | MIGNARD Yves | 01:28:49 RP | 5:55 | 33/M2M |
| 387/928 | CRESTEAUX Louis | 01:28:49 RP | 5:55 | 20/JUM |
| 388/928 | CORBEL Sophie | 01:28:49 RP | 5:55 | 24/M3F |
| 389/928 | GAILLARD Delphine | 01:28:50 | 5:55 | 17/M0F |
| 390/928 | SOMME Dewy (18665) | 01:28:52 RP | 5:55 | 30/M1M |
| 391/928 | FLEGEAU Raymond (13084) | 01:28:54 | 5:56 | 2/M6M |
| 392/928 | GUERIN Estelle | 01:29:01 RP | 5:56 | 25/M3F |
| 393/928 | LE REST Alexis | 01:29:03 RP | 5:56 | 21/JUM |
| 394/928 | BOSCHER Aurelien | 01:29:07 RP | 5:56 | 8/CAM |
| 395/928 | JAFFRY David | 01:29:10 | 5:57 | 29/M3M |
| 396/928 | LE LUDUEC Auguste | 01:29:12 RP | 5:57 | 22/JUM |
| 397/928 | GODIN Alexandre | 01:29:12 RP | 5:57 | 23/JUM |
| 398/928 | TREMELOT Victor | 01:29:13 RP | 5:57 | 24/JUM |
| 399/928 | PERRIGAULT Thibaud | 01:29:15 RP | 5:57 | 38/M0M |
← 1... 5 6 7 8 9 10 11... 19 →
Votre Palmarès est incomplet ? Connectez-vous pour ajouter vos courses manquantes même hors Bretagne
le Résultat de cette Course





